sensor_id;sensor_type;location;lat;lon;timestamp;P1;durP1;ratioP1;P2;durP2;ratioP2
16159;SDS011;8185;57.818;15.224;2023-07-13T00:00:20;8.03;;;4.80;;
16159;SDS011;8185;57.818;15.224;2023-07-13T00:02:47;7.63;;;5.50;;
16159;SDS011;8185;57.818;15.224;2023-07-13T00:05:16;8.03;;;5.73;;
16159;SDS011;8185;57.818;15.224;2023-07-13T00:07:43;8.37;;;5.13;;
16159;SDS011;8185;57.818;15.224;2023-07-13T00:10:11;8.60;;;5.60;;
16159;SDS011;8185;57.818;15.224;2023-07-13T00:12:38;9.93;;;6.07;;
16159;SDS011;8185;57.818;15.224;2023-07-13T00:15:07;5.83;;;4.80;;
16159;SDS011;8185;57.818;15.224;2023-07-13T00:17:39;8.80;;;5.60;;
16159;SDS011;8185;57.818;15.224;2023-07-13T00:20:07;6.17;;;5.20;;
16159;SDS011;8185;57.818;15.224;2023-07-13T00:22:36;10.10;;;5.80;;
16159;SDS011;8185;57.818;15.224;2023-07-13T00:25:04;7.07;;;5.43;;
16159;SDS011;8185;57.818;15.224;2023-07-13T00:27:32;9.20;;;6.30;;
16159;SDS011;8185;57.818;15.224;2023-07-13T00:29:59;8.17;;;6.00;;
16159;SDS011;8185;57.818;15.224;2023-07-13T00:32:28;8.70;;;5.13;;
16159;SDS011;8185;57.818;15.224;2023-07-13T00:34:55;12.77;;;5.97;;
16159;SDS011;8185;57.818;15.224;2023-07-13T00:37:23;12.00;;;6.40;;
16159;SDS011;8185;57.818;15.224;2023-07-13T00:39:52;9.50;;;5.60;;
16159;SDS011;8185;57.818;15.224;2023-07-13T00:42:19;6.30;;;5.43;;
16159;SDS011;8185;57.818;15.224;2023-07-13T00:45:06;9.53;;;5.63;;
16159;SDS011;8185;57.818;15.224;2023-07-13T00:47:55;9.80;;;5.87;;
16159;SDS011;8185;57.818;15.224;2023-07-13T00:50:24;8.40;;;5.53;;
16159;SDS011;8185;57.818;15.224;2023-07-13T00:52:52;6.80;;;5.83;;
16159;SDS011;8185;57.818;15.224;2023-07-13T00:55:24;6.17;;;5.27;;
16159;SDS011;8185;57.818;15.224;2023-07-13T00:57:51;7.27;;;5.50;;
16159;SDS011;8185;57.818;15.224;2023-07-13T01:00:19;7.60;;;5.77;;
16159;SDS011;8185;57.818;15.224;2023-07-13T01:02:48;7.93;;;5.33;;
16159;SDS011;8185;57.818;15.224;2023-07-13T01:05:17;7.03;;;5.43;;
16159;SDS011;8185;57.818;15.224;2023-07-13T01:07:46;8.77;;;5.73;;
16159;SDS011;8185;57.818;15.224;2023-07-13T01:10:17;5.70;;;5.20;;
16159;SDS011;8185;57.818;15.224;2023-07-13T01:12:48;8.43;;;5.57;;
16159;SDS011;8185;57.818;15.224;2023-07-13T01:15:33;8.13;;;5.10;;
16159;SDS011;8185;57.818;15.224;2023-07-13T01:18:03;6.20;;;5.30;;
16159;SDS011;8185;57.818;15.224;2023-07-13T01:20:30;6.23;;;4.93;;
16159;SDS011;8185;57.818;15.224;2023-07-13T01:23:02;13.83;;;5.70;;
16159;SDS011;8185;57.818;15.224;2023-07-13T01:25:31;9.90;;;5.67;;
16159;SDS011;8185;57.818;15.224;2023-07-13T01:27:58;8.30;;;5.30;;
16159;SDS011;8185;57.818;15.224;2023-07-13T01:30:26;6.37;;;5.00;;
16159;SDS011;8185;57.818;15.224;2023-07-13T01:32:53;9.30;;;4.80;;
16159;SDS011;8185;57.818;15.224;2023-07-13T01:35:20;6.97;;;5.43;;
16159;SDS011;8185;57.818;15.224;2023-07-13T01:37:47;10.13;;;5.80;;
16159;SDS011;8185;57.818;15.224;2023-07-13T01:40:15;7.23;;;4.87;;
16159;SDS011;8185;57.818;15.224;2023-07-13T01:42:43;8.90;;;5.33;;
16159;SDS011;8185;57.818;15.224;2023-07-13T01:45:10;5.47;;;4.97;;
16159;SDS011;8185;57.818;15.224;2023-07-13T01:47:37;7.97;;;4.97;;
16159;SDS011;8185;57.818;15.224;2023-07-13T01:50:04;5.50;;;4.77;;
16159;SDS011;8185;57.818;15.224;2023-07-13T01:52:32;15.20;;;5.50;;
16159;SDS011;8185;57.818;15.224;2023-07-13T01:55:00;6.67;;;5.37;;
16159;SDS011;8185;57.818;15.224;2023-07-13T01:57:28;6.87;;;5.60;;
16159;SDS011;8185;57.818;15.224;2023-07-13T01:59:56;6.83;;;6.13;;
16159;SDS011;8185;57.818;15.224;2023-07-13T02:02:23;8.83;;;7.00;;
16159;SDS011;8185;57.818;15.224;2023-07-13T02:04:50;9.70;;;6.93;;
16159;SDS011;8185;57.818;15.224;2023-07-13T02:07:17;9.00;;;6.73;;
16159;SDS011;8185;57.818;15.224;2023-07-13T02:09:45;7.57;;;6.37;;
16159;SDS011;8185;57.818;15.224;2023-07-13T02:12:12;8.50;;;6.80;;
16159;SDS011;8185;57.818;15.224;2023-07-13T02:14:40;9.73;;;6.77;;
16159;SDS011;8185;57.818;15.224;2023-07-13T02:17:08;8.93;;;7.03;;
16159;SDS011;8185;57.818;15.224;2023-07-13T02:19:36;10.50;;;6.50;;
16159;SDS011;8185;57.818;15.224;2023-07-13T02:22:04;9.70;;;6.40;;
16159;SDS011;8185;57.818;15.224;2023-07-13T02:24:31;7.97;;;6.53;;
16159;SDS011;8185;57.818;15.224;2023-07-13T02:26:58;6.33;;;5.60;;
16159;SDS011;8185;57.818;15.224;2023-07-13T02:29:26;7.03;;;5.93;;
16159;SDS011;8185;57.818;15.224;2023-07-13T02:31:54;9.43;;;6.40;;
16159;SDS011;8185;57.818;15.224;2023-07-13T02:34:21;10.83;;;6.67;;
16159;SDS011;8185;57.818;15.224;2023-07-13T02:36:49;8.33;;;5.80;;
16159;SDS011;8185;57.818;15.224;2023-07-13T02:39:16;7.63;;;6.30;;
16159;SDS011;8185;57.818;15.224;2023-07-13T02:41:43;8.03;;;6.70;;
16159;SDS011;8185;57.818;15.224;2023-07-13T02:44:12;7.03;;;6.17;;
16159;SDS011;8185;57.818;15.224;2023-07-13T02:46:39;9.57;;;6.20;;
16159;SDS011;8185;57.818;15.224;2023-07-13T02:49:08;14.70;;;7.50;;
16159;SDS011;8185;57.818;15.224;2023-07-13T02:51:35;10.20;;;6.90;;
16159;SDS011;8185;57.818;15.224;2023-07-13T02:54:02;8.77;;;6.00;;
16159;SDS011;8185;57.818;15.224;2023-07-13T02:56:31;8.60;;;6.53;;
16159;SDS011;8185;57.818;15.224;2023-07-13T02:58:58;9.10;;;6.97;;
16159;SDS011;8185;57.818;15.224;2023-07-13T03:01:26;6.83;;;6.17;;
16159;SDS011;8185;57.818;15.224;2023-07-13T03:03:53;7.17;;;5.67;;
16159;SDS011;8185;57.818;15.224;2023-07-13T03:06:22;9.57;;;6.03;;
16159;SDS011;8185;57.818;15.224;2023-07-13T03:08:49;8.47;;;6.20;;
16159;SDS011;8185;57.818;15.224;2023-07-13T03:11:18;9.03;;;5.57;;
16159;SDS011;8185;57.818;15.224;2023-07-13T03:13:46;8.87;;;5.83;;
16159;SDS011;8185;57.818;15.224;2023-07-13T03:16:13;8.23;;;5.90;;
16159;SDS011;8185;57.818;15.224;2023-07-13T03:18:42;9.57;;;5.97;;
16159;SDS011;8185;57.818;15.224;2023-07-13T03:21:09;7.93;;;5.70;;
16159;SDS011;8185;57.818;15.224;2023-07-13T03:23:38;8.60;;;6.03;;
16159;SDS011;8185;57.818;15.224;2023-07-13T03:26:06;6.20;;;5.30;;
16159;SDS011;8185;57.818;15.224;2023-07-13T03:28:35;5.97;;;5.30;;
16159;SDS011;8185;57.818;15.224;2023-07-13T03:31:02;7.60;;;5.37;;
16159;SDS011;8185;57.818;15.224;2023-07-13T03:33:32;5.50;;;4.60;;
16159;SDS011;8185;57.818;15.224;2023-07-13T03:35:59;8.00;;;4.47;;
16159;SDS011;8185;57.818;15.224;2023-07-13T03:38:26;8.07;;;5.17;;
16159;SDS011;8185;57.818;15.224;2023-07-13T03:40:55;6.23;;;4.03;;
16159;SDS011;8185;57.818;15.224;2023-07-13T03:43:22;7.70;;;4.37;;
16159;SDS011;8185;57.818;15.224;2023-07-13T03:45:49;4.53;;;3.93;;
16159;SDS011;8185;57.818;15.224;2023-07-13T03:48:16;7.53;;;4.03;;
16159;SDS011;8185;57.818;15.224;2023-07-13T03:50:43;5.20;;;3.90;;
16159;SDS011;8185;57.818;15.224;2023-07-13T03:53:10;6.90;;;3.77;;
16159;SDS011;8185;57.818;15.224;2023-07-13T03:55:37;8.17;;;4.10;;
16159;SDS011;8185;57.818;15.224;2023-07-13T03:58:26;7.10;;;4.00;;
16159;SDS011;8185;57.818;15.224;2023-07-13T04:00:55;3.83;;;3.43;;
16159;SDS011;8185;57.818;15.224;2023-07-13T04:03:23;5.63;;;3.33;;
16159;SDS011;8185;57.818;15.224;2023-07-13T04:05:53;5.53;;;3.53;;
16159;SDS011;8185;57.818;15.224;2023-07-13T04:08:25;5.37;;;3.80;;
16159;SDS011;8185;57.818;15.224;2023-07-13T04:10:53;8.17;;;3.53;;
16159;SDS011;8185;57.818;15.224;2023-07-13T04:13:20;4.87;;;3.40;;
16159;SDS011;8185;57.818;15.224;2023-07-13T04:15:49;4.30;;;3.43;;
16159;SDS011;8185;57.818;15.224;2023-07-13T04:18:16;5.40;;;3.57;;
16159;SDS011;8185;57.818;15.224;2023-07-13T04:20:44;4.50;;;3.00;;
16159;SDS011;8185;57.818;15.224;2023-07-13T04:23:12;5.20;;;2.90;;
16159;SDS011;8185;57.818;15.224;2023-07-13T04:25:43;3.37;;;2.87;;
16159;SDS011;8185;57.818;15.224;2023-07-13T04:28:10;5.20;;;3.03;;
16159;SDS011;8185;57.818;15.224;2023-07-13T04:30:38;3.60;;;2.67;;
16159;SDS011;8185;57.818;15.224;2023-07-13T04:33:06;4.87;;;2.50;;
16159;SDS011;8185;57.818;15.224;2023-07-13T04:35:34;7.27;;;2.80;;
16159;SDS011;8185;57.818;15.224;2023-07-13T04:38:02;4.10;;;2.60;;
16159;SDS011;8185;57.818;15.224;2023-07-13T04:40:29;2.83;;;2.23;;
16159;SDS011;8185;57.818;15.224;2023-07-13T04:42:56;7.37;;;3.60;;
16159;SDS011;8185;57.818;15.224;2023-07-13T04:45:23;4.13;;;2.40;;
16159;SDS011;8185;57.818;15.224;2023-07-13T04:47:51;6.30;;;3.53;;
16159;SDS011;8185;57.818;15.224;2023-07-13T04:50:20;7.30;;;2.53;;
16159;SDS011;8185;57.818;15.224;2023-07-13T04:52:48;6.90;;;2.60;;
16159;SDS011;8185;57.818;15.224;2023-07-13T04:55:16;6.63;;;2.63;;
16159;SDS011;8185;57.818;15.224;2023-07-13T04:57:44;6.90;;;2.67;;
16159;SDS011;8185;57.818;15.224;2023-07-13T05:00:12;3.33;;;2.17;;
16159;SDS011;8185;57.818;15.224;2023-07-13T05:02:40;4.60;;;2.40;;
16159;SDS011;8185;57.818;15.224;2023-07-13T05:05:09;6.33;;;2.60;;
16159;SDS011;8185;57.818;15.224;2023-07-13T05:07:38;3.80;;;2.60;;
16159;SDS011;8185;57.818;15.224;2023-07-13T05:10:06;3.50;;;2.17;;
16159;SDS011;8185;57.818;15.224;2023-07-13T05:12:34;5.97;;;2.33;;
16159;SDS011;8185;57.818;15.224;2023-07-13T05:15:01;4.67;;;2.93;;
16159;SDS011;8185;57.818;15.224;2023-07-13T05:17:29;6.33;;;2.30;;
16159;SDS011;8185;57.818;15.224;2023-07-13T05:19:56;6.03;;;2.50;;
16159;SDS011;8185;57.818;15.224;2023-07-13T05:22:23;7.53;;;2.47;;
16159;SDS011;8185;57.818;15.224;2023-07-13T05:24:51;6.60;;;2.50;;
16159;SDS011;8185;57.818;15.224;2023-07-13T05:27:18;5.37;;;2.30;;
16159;SDS011;8185;57.818;15.224;2023-07-13T05:29:46;4.47;;;1.80;;
16159;SDS011;8185;57.818;15.224;2023-07-13T05:32:13;3.30;;;2.07;;
16159;SDS011;8185;57.818;15.224;2023-07-13T05:34:40;4.87;;;2.70;;
16159;SDS011;8185;57.818;15.224;2023-07-13T05:37:07;6.57;;;2.20;;
16159;SDS011;8185;57.818;15.224;2023-07-13T05:39:35;3.53;;;1.80;;
16159;SDS011;8185;57.818;15.224;2023-07-13T05:42:03;5.13;;;2.33;;
16159;SDS011;8185;57.818;15.224;2023-07-13T05:44:31;3.10;;;1.80;;
16159;SDS011;8185;57.818;15.224;2023-07-13T05:46:58;4.33;;;2.17;;
16159;SDS011;8185;57.818;15.224;2023-07-13T05:49:25;5.77;;;2.30;;
16159;SDS011;8185;57.818;15.224;2023-07-13T05:51:52;5.63;;;1.83;;
16159;SDS011;8185;57.818;15.224;2023-07-13T05:54:20;6.37;;;1.90;;
16159;SDS011;8185;57.818;15.224;2023-07-13T05:56:47;3.57;;;1.80;;
16159;SDS011;8185;57.818;15.224;2023-07-13T05:59:15;3.03;;;1.57;;
16159;SDS011;8185;57.818;15.224;2023-07-13T06:01:43;5.87;;;1.70;;
16159;SDS011;8185;57.818;15.224;2023-07-13T06:04:10;4.80;;;2.23;;
16159;SDS011;8185;57.818;15.224;2023-07-13T06:06:37;5.67;;;1.67;;
16159;SDS011;8185;57.818;15.224;2023-07-13T06:09:04;4.70;;;1.70;;
16159;SDS011;8185;57.818;15.224;2023-07-13T06:11:32;9.63;;;2.23;;
16159;SDS011;8185;57.818;15.224;2023-07-13T06:14:00;4.97;;;1.60;;
16159;SDS011;8185;57.818;15.224;2023-07-13T06:16:30;2.87;;;1.70;;
16159;SDS011;8185;57.818;15.224;2023-07-13T06:18:57;4.00;;;1.60;;
16159;SDS011;8185;57.818;15.224;2023-07-13T06:21:24;3.30;;;1.63;;
16159;SDS011;8185;57.818;15.224;2023-07-13T06:23:52;5.77;;;1.60;;
16159;SDS011;8185;57.818;15.224;2023-07-13T06:26:19;5.23;;;1.70;;
16159;SDS011;8185;57.818;15.224;2023-07-13T06:28:47;4.43;;;1.63;;
16159;SDS011;8185;57.818;15.224;2023-07-13T06:31:14;4.37;;;1.53;;
16159;SDS011;8185;57.818;15.224;2023-07-13T06:33:43;6.43;;;1.50;;
16159;SDS011;8185;57.818;15.224;2023-07-13T06:36:10;3.07;;;1.50;;
16159;SDS011;8185;57.818;15.224;2023-07-13T06:38:38;3.00;;;1.63;;
16159;SDS011;8185;57.818;15.224;2023-07-13T06:41:05;5.43;;;1.73;;
16159;SDS011;8185;57.818;15.224;2023-07-13T06:43:33;3.77;;;1.60;;
16159;SDS011;8185;57.818;15.224;2023-07-13T06:46:01;3.60;;;1.77;;
16159;SDS011;8185;57.818;15.224;2023-07-13T06:48:28;7.23;;;2.63;;
16159;SDS011;8185;57.818;15.224;2023-07-13T06:50:57;4.13;;;1.37;;
16159;SDS011;8185;57.818;15.224;2023-07-13T06:53:24;2.50;;;1.40;;
16159;SDS011;8185;57.818;15.224;2023-07-13T06:55:51;3.30;;;1.53;;
16159;SDS011;8185;57.818;15.224;2023-07-13T06:58:19;5.87;;;1.30;;
16159;SDS011;8185;57.818;15.224;2023-07-13T07:00:46;4.40;;;1.63;;
16159;SDS011;8185;57.818;15.224;2023-07-13T07:03:17;5.40;;;1.30;;
16159;SDS011;8185;57.818;15.224;2023-07-13T07:05:44;2.60;;;1.50;;
16159;SDS011;8185;57.818;15.224;2023-07-13T07:08:12;4.40;;;1.73;;
16159;SDS011;8185;57.818;15.224;2023-07-13T07:10:40;3.37;;;1.10;;
16159;SDS011;8185;57.818;15.224;2023-07-13T07:13:08;5.03;;;1.60;;
16159;SDS011;8185;57.818;15.224;2023-07-13T07:15:35;3.83;;;1.27;;
16159;SDS011;8185;57.818;15.224;2023-07-13T07:18:02;5.47;;;1.40;;
16159;SDS011;8185;57.818;15.224;2023-07-13T07:20:29;4.10;;;1.60;;
16159;SDS011;8185;57.818;15.224;2023-07-13T07:22:58;4.00;;;1.20;;
16159;SDS011;8185;57.818;15.224;2023-07-13T07:25:26;3.93;;;1.30;;
16159;SDS011;8185;57.818;15.224;2023-07-13T07:27:57;4.03;;;1.50;;
16159;SDS011;8185;57.818;15.224;2023-07-13T07:30:25;3.63;;;1.30;;
16159;SDS011;8185;57.818;15.224;2023-07-13T07:32:52;4.83;;;1.23;;
16159;SDS011;8185;57.818;15.224;2023-07-13T07:35:19;3.03;;;1.20;;
16159;SDS011;8185;57.818;15.224;2023-07-13T07:37:46;4.03;;;1.30;;
16159;SDS011;8185;57.818;15.224;2023-07-13T07:40:13;2.53;;;1.13;;
16159;SDS011;8185;57.818;15.224;2023-07-13T07:42:42;1.13;;;0.70;;
16159;SDS011;8185;57.818;15.224;2023-07-13T07:45:09;7.93;;;1.00;;
16159;SDS011;8185;57.818;15.224;2023-07-13T07:47:37;3.50;;;1.27;;
16159;SDS011;8185;57.818;15.224;2023-07-13T07:50:04;6.10;;;2.07;;
16159;SDS011;8185;57.818;15.224;2023-07-13T07:52:32;3.40;;;0.83;;
16159;SDS011;8185;57.818;15.224;2023-07-13T07:54:59;6.90;;;1.60;;
16159;SDS011;8185;57.818;15.224;2023-07-13T07:57:26;5.33;;;1.30;;
16159;SDS011;8185;57.818;15.224;2023-07-13T07:59:55;3.83;;;1.10;;
16159;SDS011;8185;57.818;15.224;2023-07-13T08:02:22;2.50;;;1.10;;
16159;SDS011;8185;57.818;15.224;2023-07-13T08:04:50;5.10;;;1.50;;
16159;SDS011;8185;57.818;15.224;2023-07-13T08:07:18;8.10;;;1.17;;
16159;SDS011;8185;57.818;15.224;2023-07-13T08:09:45;6.40;;;1.37;;
16159;SDS011;8185;57.818;15.224;2023-07-13T08:12:13;2.77;;;1.13;;
16159;SDS011;8185;57.818;15.224;2023-07-13T08:14:40;4.90;;;1.60;;
16159;SDS011;8185;57.818;15.224;2023-07-13T08:17:10;2.40;;;0.93;;
16159;SDS011;8185;57.818;15.224;2023-07-13T08:19:38;3.80;;;1.27;;
16159;SDS011;8185;57.818;15.224;2023-07-13T08:22:05;3.87;;;1.57;;
16159;SDS011;8185;57.818;15.224;2023-07-13T08:24:32;3.40;;;1.43;;
16159;SDS011;8185;57.818;15.224;2023-07-13T08:26:59;3.53;;;1.23;;
16159;SDS011;8185;57.818;15.224;2023-07-13T08:29:27;2.97;;;1.17;;
16159;SDS011;8185;57.818;15.224;2023-07-13T08:31:57;6.27;;;1.03;;
16159;SDS011;8185;57.818;15.224;2023-07-13T08:34:25;1.77;;;0.90;;
16159;SDS011;8185;57.818;15.224;2023-07-13T08:36:53;5.33;;;1.00;;
16159;SDS011;8185;57.818;15.224;2023-07-13T08:39:20;2.67;;;1.07;;
16159;SDS011;8185;57.818;15.224;2023-07-13T08:41:47;2.93;;;1.10;;
16159;SDS011;8185;57.818;15.224;2023-07-13T08:44:19;3.53;;;1.23;;
16159;SDS011;8185;57.818;15.224;2023-07-13T08:47:03;3.43;;;1.00;;
16159;SDS011;8185;57.818;15.224;2023-07-13T08:49:32;2.20;;;0.83;;
16159;SDS011;8185;57.818;15.224;2023-07-13T08:52:02;6.80;;;1.40;;
16159;SDS011;8185;57.818;15.224;2023-07-13T08:54:35;2.33;;;1.00;;
16159;SDS011;8185;57.818;15.224;2023-07-13T08:57:09;4.83;;;0.93;;
16159;SDS011;8185;57.818;15.224;2023-07-13T08:59:39;2.47;;;1.17;;
16159;SDS011;8185;57.818;15.224;2023-07-13T09:02:14;6.70;;;1.27;;
16159;SDS011;8185;57.818;15.224;2023-07-13T09:04:52;3.13;;;0.70;;
16159;SDS011;8185;57.818;15.224;2023-07-13T09:07:30;2.10;;;0.90;;
16159;SDS011;8185;57.818;15.224;2023-07-13T09:10:09;2.13;;;1.10;;
16159;SDS011;8185;57.818;15.224;2023-07-13T09:12:45;7.37;;;1.50;;
16159;SDS011;8185;57.818;15.224;2023-07-13T09:15:21;2.67;;;1.17;;
16159;SDS011;8185;57.818;15.224;2023-07-13T09:17:52;3.63;;;1.17;;
16159;SDS011;8185;57.818;15.224;2023-07-13T09:20:25;2.33;;;0.87;;
16159;SDS011;8185;57.818;15.224;2023-07-13T09:22:55;2.67;;;0.70;;
16159;SDS011;8185;57.818;15.224;2023-07-13T09:25:26;3.50;;;1.03;;
16159;SDS011;8185;57.818;15.224;2023-07-13T09:27:58;2.97;;;0.83;;
16159;SDS011;8185;57.818;15.224;2023-07-13T09:30:31;2.60;;;0.67;;
16159;SDS011;8185;57.818;15.224;2023-07-13T09:33:03;4.27;;;0.70;;
16159;SDS011;8185;57.818;15.224;2023-07-13T09:35:32;4.87;;;0.80;;
16159;SDS011;8185;57.818;15.224;2023-07-13T09:38:03;2.83;;;0.97;;
16159;SDS011;8185;57.818;15.224;2023-07-13T09:40:40;5.93;;;1.20;;
16159;SDS011;8185;57.818;15.224;2023-07-13T09:43:16;4.30;;;0.90;;
16159;SDS011;8185;57.818;15.224;2023-07-13T09:45:46;1.87;;;1.00;;
16159;SDS011;8185;57.818;15.224;2023-07-13T09:48:14;3.73;;;0.90;;
16159;SDS011;8185;57.818;15.224;2023-07-13T09:50:44;3.20;;;0.90;;
16159;SDS011;8185;57.818;15.224;2023-07-13T09:53:13;2.17;;;0.97;;
16159;SDS011;8185;57.818;15.224;2023-07-13T09:55:42;2.07;;;0.73;;
16159;SDS011;8185;57.818;15.224;2023-07-13T09:58:12;2.47;;;0.87;;
16159;SDS011;8185;57.818;15.224;2023-07-13T10:00:41;2.17;;;0.77;;
16159;SDS011;8185;57.818;15.224;2023-07-13T10:03:17;3.53;;;1.00;;
16159;SDS011;8185;57.818;15.224;2023-07-13T10:05:49;1.67;;;0.70;;
16159;SDS011;8185;57.818;15.224;2023-07-13T10:08:18;1.53;;;0.80;;
16159;SDS011;8185;57.818;15.224;2023-07-13T10:10:52;0.90;;;0.60;;
16159;SDS011;8185;57.818;15.224;2023-07-13T10:13:33;2.10;;;0.90;;
16159;SDS011;8185;57.818;15.224;2023-07-13T10:16:03;1.67;;;0.80;;
16159;SDS011;8185;57.818;15.224;2023-07-13T10:18:35;3.23;;;0.90;;
16159;SDS011;8185;57.818;15.224;2023-07-13T10:21:14;1.93;;;0.90;;
16159;SDS011;8185;57.818;15.224;2023-07-13T10:23:43;2.00;;;0.70;;
16159;SDS011;8185;57.818;15.224;2023-07-13T10:26:15;2.70;;;0.70;;
16159;SDS011;8185;57.818;15.224;2023-07-13T10:28:46;1.33;;;0.77;;
16159;SDS011;8185;57.818;15.224;2023-07-13T10:31:20;3.60;;;0.90;;
16159;SDS011;8185;57.818;15.224;2023-07-13T10:33:48;3.10;;;0.90;;
16159;SDS011;8185;57.818;15.224;2023-07-13T10:36:24;0.80;;;0.50;;
16159;SDS011;8185;57.818;15.224;2023-07-13T10:38:59;3.33;;;0.77;;
16159;SDS011;8185;57.818;15.224;2023-07-13T10:41:29;5.57;;;1.20;;
16159;SDS011;8185;57.818;15.224;2023-07-13T10:44:00;1.17;;;0.80;;
16159;SDS011;8185;57.818;15.224;2023-07-13T10:46:28;2.07;;;0.77;;
16159;SDS011;8185;57.818;15.224;2023-07-13T10:48:57;4.50;;;0.90;;
16159;SDS011;8185;57.818;15.224;2023-07-13T10:51:29;1.63;;;0.83;;
16159;SDS011;8185;57.818;15.224;2023-07-13T10:54:16;2.33;;;1.00;;
16159;SDS011;8185;57.818;15.224;2023-07-13T10:56:48;3.28;;;0.73;;
16159;SDS011;8185;57.818;15.224;2023-07-13T10:59:17;2.95;;;0.70;;
16159;SDS011;8185;57.818;15.224;2023-07-13T11:01:53;1.42;;;0.65;;
16159;SDS011;8185;57.818;15.224;2023-07-13T11:04:23;1.67;;;0.70;;
16159;SDS011;8185;57.818;15.224;2023-07-13T11:06:56;2.33;;;0.80;;
16159;SDS011;8185;57.818;15.224;2023-07-13T11:09:36;2.63;;;1.10;;
16159;SDS011;8185;57.818;15.224;2023-07-13T11:12:09;2.38;;;0.95;;
16159;SDS011;8185;57.818;15.224;2023-07-13T11:15:05;1.33;;;0.57;;
16159;SDS011;8185;57.818;15.224;2023-07-13T11:17:38;3.07;;;1.00;;
16159;SDS011;8185;57.818;15.224;2023-07-13T11:20:20;3.67;;;1.23;;
16159;SDS011;8185;57.818;15.224;2023-07-13T11:23:18;2.33;;;1.10;;
16159;SDS011;8185;57.818;15.224;2023-07-13T11:25:52;2.33;;;0.70;;
16159;SDS011;8185;57.818;15.224;2023-07-13T11:28:24;2.73;;;1.20;;
16159;SDS011;8185;57.818;15.224;2023-07-13T11:31:00;2.60;;;0.90;;
16159;SDS011;8185;57.818;15.224;2023-07-13T11:33:49;3.63;;;0.90;;
16159;SDS011;8185;57.818;15.224;2023-07-13T11:36:19;1.37;;;0.80;;
16159;SDS011;8185;57.818;15.224;2023-07-13T11:38:57;4.10;;;0.83;;
16159;SDS011;8185;57.818;15.224;2023-07-13T11:41:29;2.87;;;0.90;;
16159;SDS011;8185;57.818;15.224;2023-07-13T11:44:07;2.40;;;0.80;;
16159;SDS011;8185;57.818;15.224;2023-07-13T11:46:37;2.73;;;1.00;;
16159;SDS011;8185;57.818;15.224;2023-07-13T11:49:05;2.70;;;0.90;;
16159;SDS011;8185;57.818;15.224;2023-07-13T11:51:33;4.87;;;1.07;;
16159;SDS011;8185;57.818;15.224;2023-07-13T11:54:05;4.03;;;1.07;;
16159;SDS011;8185;57.818;15.224;2023-07-13T11:56:38;3.67;;;1.00;;
16159;SDS011;8185;57.818;15.224;2023-07-13T11:59:06;3.23;;;1.10;;
16159;SDS011;8185;57.818;15.224;2023-07-13T12:01:34;2.00;;;1.20;;
16159;SDS011;8185;57.818;15.224;2023-07-13T12:04:08;3.07;;;1.00;;
16159;SDS011;8185;57.818;15.224;2023-07-13T12:06:46;3.33;;;1.20;;
16159;SDS011;8185;57.818;15.224;2023-07-13T12:09:20;1.77;;;1.00;;
16159;SDS011;8185;57.818;15.224;2023-07-13T12:11:50;2.10;;;0.90;;
16159;SDS011;8185;57.818;15.224;2023-07-13T12:14:18;2.70;;;1.10;;
16159;SDS011;8185;57.818;15.224;2023-07-13T12:16:46;4.83;;;0.97;;
16159;SDS011;8185;57.818;15.224;2023-07-13T12:19:17;2.20;;;0.90;;
16159;SDS011;8185;57.818;15.224;2023-07-13T12:21:46;3.00;;;0.80;;
16159;SDS011;8185;57.818;15.224;2023-07-13T12:24:14;2.93;;;0.80;;
16159;SDS011;8185;57.818;15.224;2023-07-13T12:26:44;2.17;;;0.90;;
16159;SDS011;8185;57.818;15.224;2023-07-13T12:29:17;3.75;;;1.20;;
16159;SDS011;8185;57.818;15.224;2023-07-13T12:31:45;2.53;;;0.90;;
16159;SDS011;8185;57.818;15.224;2023-07-13T12:34:14;4.00;;;0.60;;
16159;SDS011;8185;57.818;15.224;2023-07-13T12:36:45;1.83;;;0.60;;
16159;SDS011;8185;57.818;15.224;2023-07-13T12:39:15;2.40;;;0.60;;
16159;SDS011;8185;57.818;15.224;2023-07-13T12:41:47;2.60;;;0.85;;
16159;SDS011;8185;57.818;15.224;2023-07-13T12:44:15;1.85;;;0.98;;
16159;SDS011;8185;57.818;15.224;2023-07-13T12:46:52;1.60;;;0.60;;
16159;SDS011;8185;57.818;15.224;2023-07-13T12:49:23;3.38;;;0.60;;
16159;SDS011;8185;57.818;15.224;2023-07-13T12:51:57;0.70;;;0.50;;
16159;SDS011;8185;57.818;15.224;2023-07-13T12:54:26;1.33;;;0.75;;
16159;SDS011;8185;57.818;15.224;2023-07-13T12:56:56;1.88;;;0.80;;
16159;SDS011;8185;57.818;15.224;2023-07-13T12:59:25;0.82;;;0.70;;
16159;SDS011;8185;57.818;15.224;2023-07-13T13:02:04;2.63;;;0.75;;
16159;SDS011;8185;57.818;15.224;2023-07-13T13:04:53;3.22;;;0.70;;
16159;SDS011;8185;57.818;15.224;2023-07-13T13:07:23;2.22;;;0.52;;
16159;SDS011;8185;57.818;15.224;2023-07-13T13:09:50;1.65;;;0.65;;
16159;SDS011;8185;57.818;15.224;2023-07-13T13:12:20;1.80;;;0.70;;
16159;SDS011;8185;57.818;15.224;2023-07-13T13:14:47;1.25;;;0.60;;
16159;SDS011;8185;57.818;15.224;2023-07-13T13:17:18;4.63;;;0.77;;
16159;SDS011;8185;57.818;15.224;2023-07-13T13:19:47;2.10;;;0.85;;
16159;SDS011;8185;57.818;15.224;2023-07-13T13:22:15;1.63;;;0.77;;
16159;SDS011;8185;57.818;15.224;2023-07-13T13:24:42;2.55;;;0.63;;
16159;SDS011;8185;57.818;15.224;2023-07-13T13:27:13;1.20;;;0.80;;
16159;SDS011;8185;57.818;15.224;2023-07-13T13:29:44;2.17;;;0.80;;
16159;SDS011;8185;57.818;15.224;2023-07-13T13:32:12;2.60;;;0.98;;
16159;SDS011;8185;57.818;15.224;2023-07-13T13:34:41;1.38;;;0.70;;
16159;SDS011;8185;57.818;15.224;2023-07-13T13:37:16;2.45;;;0.88;;
16159;SDS011;8185;57.818;15.224;2023-07-13T13:39:46;1.80;;;0.80;;
16159;SDS011;8185;57.818;15.224;2023-07-13T13:42:14;1.50;;;0.90;;
16159;SDS011;8185;57.818;15.224;2023-07-13T13:44:41;2.88;;;0.82;;
16159;SDS011;8185;57.818;15.224;2023-07-13T13:47:17;2.00;;;1.05;;
16159;SDS011;8185;57.818;15.224;2023-07-13T13:49:53;1.73;;;1.02;;
16159;SDS011;8185;57.818;15.224;2023-07-13T13:52:20;1.95;;;1.00;;
16159;SDS011;8185;57.818;15.224;2023-07-13T13:54:47;1.70;;;1.00;;
16159;SDS011;8185;57.818;15.224;2023-07-13T13:57:15;3.03;;;1.30;;
16159;SDS011;8185;57.818;15.224;2023-07-13T13:59:43;5.32;;;1.00;;
16159;SDS011;8185;57.818;15.224;2023-07-13T14:02:21;2.75;;;0.70;;
16159;SDS011;8185;57.818;15.224;2023-07-13T14:04:52;3.72;;;1.10;;
16159;SDS011;8185;57.818;15.224;2023-07-13T14:07:23;2.47;;;0.82;;
16159;SDS011;8185;57.818;15.224;2023-07-13T14:09:51;2.67;;;0.90;;
16159;SDS011;8185;57.818;15.224;2023-07-13T14:12:19;1.33;;;0.60;;
16159;SDS011;8185;57.818;15.224;2023-07-13T14:14:48;2.00;;;1.00;;
16159;SDS011;8185;57.818;15.224;2023-07-13T14:17:18;2.95;;;0.82;;
16159;SDS011;8185;57.818;15.224;2023-07-13T14:19:48;2.33;;;0.88;;
16159;SDS011;8185;57.818;15.224;2023-07-13T14:22:22;2.88;;;1.08;;
16159;SDS011;8185;57.818;15.224;2023-07-13T14:24:49;1.40;;;0.57;;
16159;SDS011;8185;57.818;15.224;2023-07-13T14:27:18;1.38;;;0.60;;
16159;SDS011;8185;57.818;15.224;2023-07-13T14:29:46;1.35;;;0.63;;
16159;SDS011;8185;57.818;15.224;2023-07-13T14:32:14;1.70;;;0.95;;
16159;SDS011;8185;57.818;15.224;2023-07-13T14:34:41;2.50;;;0.80;;
16159;SDS011;8185;57.818;15.224;2023-07-13T14:37:11;2.30;;;0.75;;
16159;SDS011;8185;57.818;15.224;2023-07-13T14:39:42;3.25;;;0.82;;
16159;SDS011;8185;57.818;15.224;2023-07-13T14:42:11;2.08;;;0.80;;
16159;SDS011;8185;57.818;15.224;2023-07-13T14:44:38;2.20;;;0.70;;
16159;SDS011;8185;57.818;15.224;2023-07-13T14:47:06;3.40;;;0.93;;
16159;SDS011;8185;57.818;15.224;2023-07-13T14:49:36;1.90;;;0.70;;
16159;SDS011;8185;57.818;15.224;2023-07-13T14:52:08;1.38;;;0.60;;
16159;SDS011;8185;57.818;15.224;2023-07-13T14:54:39;2.28;;;0.70;;
16159;SDS011;8185;57.818;15.224;2023-07-13T14:57:09;2.85;;;0.80;;
16159;SDS011;8185;57.818;15.224;2023-07-13T14:59:37;3.65;;;0.55;;
16159;SDS011;8185;57.818;15.224;2023-07-13T15:02:10;1.92;;;0.88;;